createdAt,value
2022-10-28T00:00:15.864Z,37.8
2022-10-28T00:05:15.840Z,37.6
2022-10-28T00:10:15.874Z,37.4
2022-10-28T00:15:18.907Z,37.7
2022-10-28T00:20:18.887Z,37.6
2022-10-28T00:25:18.858Z,37.4
2022-10-28T00:30:19.209Z,37.3
2022-10-28T00:35:15.786Z,37.6
2022-10-28T00:40:18.888Z,37.4
2022-10-28T00:45:18.915Z,37.4
2022-10-28T00:50:18.909Z,37.2
2022-10-28T00:55:15.905Z,37.0
2022-10-28T01:00:15.915Z,37.4
2022-10-28T01:05:16.097Z,37.2
2022-10-28T01:10:15.910Z,37.1
2022-10-28T01:15:15.931Z,36.9
2022-10-28T01:20:15.939Z,36.8
2022-10-28T01:25:18.931Z,36.6
2022-10-28T01:30:18.978Z,36.9
2022-10-28T01:35:19.158Z,36.8
2022-10-28T01:40:18.903Z,36.6
2022-10-28T01:45:18.894Z,36.4
2022-10-28T01:50:18.896Z,36.2
2022-10-28T01:55:15.883Z,36.6
2022-10-28T02:00:15.926Z,36.4
2022-10-28T02:05:15.924Z,36.2
2022-10-28T02:10:16.084Z,36.1
2022-10-28T02:15:18.927Z,36.0
2022-10-28T02:20:18.930Z,35.7
2022-10-28T02:25:18.880Z,35.6
2022-10-28T02:30:18.907Z,35.4
2022-10-28T02:35:15.933Z,35.3
2022-10-28T02:40:19.216Z,35.1
2022-10-28T02:45:18.959Z,35.5
2022-10-28T02:50:18.912Z,35.3
2022-10-28T02:55:18.909Z,35.2
2022-10-28T03:00:18.912Z,35.0
2022-10-28T03:05:18.908Z,35.3
2022-10-28T03:10:18.938Z,35.2
2022-10-28T03:15:16.099Z,35.1
2022-10-28T03:20:18.960Z,35.3
2022-10-28T03:25:18.979Z,35.2
2022-10-28T03:30:15.956Z,35.1
2022-10-28T03:35:15.997Z,34.9
2022-10-28T03:40:16.013Z,35.3
2022-10-28T03:45:16.078Z,35.1
2022-10-28T03:50:16.017Z,35.0
2022-10-28T03:55:15.973Z,35.0
2022-10-28T04:00:17.347Z,35.1
2022-10-28T04:05:17.215Z,35.0
2022-10-28T04:10:17.232Z,34.8
2022-10-28T04:15:20.296Z,35.1
2022-10-28T04:20:17.606Z,34.9
2022-10-28T04:25:17.254Z,34.9
2022-10-28T04:30:17.229Z,35.2
2022-10-28T04:35:17.277Z,35.1
2022-10-28T04:40:17.280Z,34.9
2022-10-28T04:45:20.239Z,35.2
2022-10-28T04:50:17.290Z,35.1
2022-10-28T04:55:17.545Z,35.0
2022-10-28T05:00:20.286Z,34.8
2022-10-28T05:05:22.720Z,35.1
2022-10-28T05:10:17.301Z,35.0
2022-10-28T05:15:20.308Z,34.9
2022-10-28T05:20:20.292Z,34.8
2022-10-28T05:25:20.514Z,35.1
2022-10-28T05:30:17.107Z,35.0
2022-10-28T05:35:17.102Z,35.0
2022-10-28T05:40:20.272Z,35.0
2022-10-28T13:20:18.433Z,36.4
2022-10-28T13:25:18.639Z,36.3
2022-10-28T13:30:18.506Z,36.5
2022-10-28T13:35:18.508Z,36.3
2022-10-28T13:40:15.491Z,36.5
2022-10-28T13:45:15.490Z,37.1
2022-10-28T13:50:18.496Z,36.7
2022-10-28T13:55:18.536Z,37.0
2022-10-28T14:00:18.905Z,36.8
2022-10-28T14:05:18.489Z,37.3
2022-10-28T14:10:20.657Z,37.5
2022-10-28T14:15:18.513Z,37.3
2022-10-28T14:20:18.496Z,37.6
2022-10-28T14:25:19.812Z,37.5
2022-10-28T14:30:15.535Z,38.0
2022-10-28T14:35:18.845Z,37.8
2022-10-28T14:40:15.560Z,37.8
2022-10-28T14:45:15.548Z,37.9
2022-10-28T14:50:18.559Z,38.5
2022-10-28T14:55:18.543Z,38.1
2022-10-28T15:00:18.496Z,38.4
2022-10-28T15:05:18.544Z,38.3
2022-10-28T15:10:18.810Z,38.2
2022-10-28T15:15:15.493Z,38.3
2022-10-28T15:20:18.568Z,39.1
2022-10-28T15:25:18.519Z,38.9
2022-10-28T15:30:15.550Z,38.2
2022-10-28T15:35:15.550Z,38.5
2022-10-28T15:40:15.568Z,38.6
2022-10-28T15:45:18.801Z,38.3
2022-10-28T15:50:15.415Z,38.5
2022-10-28T15:55:15.540Z,38.6
2022-10-28T16:00:18.539Z,38.5
2022-10-28T16:05:18.530Z,38.9
2022-10-28T16:10:15.545Z,38.9
2022-10-28T16:15:15.586Z,38.7
2022-10-28T16:20:19.164Z,39.1
2022-10-28T16:25:18.536Z,38.9
2022-10-28T16:30:18.651Z,38.9
2022-10-28T16:35:15.562Z,38.7
2022-10-28T16:40:54.003Z,39.4
2022-10-28T16:45:18.555Z,39.3
2022-10-28T16:50:15.551Z,39.5
2022-10-28T16:55:15.796Z,39.2
2022-10-28T17:00:15.603Z,39.7
2022-10-28T17:05:18.600Z,39.3
2022-10-28T17:10:15.400Z,39.3
2022-10-28T17:15:18.558Z,39.4
2022-10-28T17:20:18.679Z,39.0
2022-10-28T17:25:15.573Z,39.3
2022-10-28T17:30:19.036Z,38.8
2022-10-28T17:35:18.570Z,38.6
2022-10-28T17:40:18.577Z,38.6
2022-10-28T17:45:21.151Z,38.6
2022-10-28T17:50:15.543Z,38.6
2022-10-28T17:55:15.605Z,38.2
2022-10-28T18:00:15.605Z,38.3
2022-10-28T18:05:18.928Z,38.5
2022-10-28T18:10:18.573Z,38.6
2022-10-28T18:15:18.596Z,38.2
2022-10-28T18:20:18.576Z,38.4
2022-10-28T18:25:18.614Z,38.5
2022-10-28T18:30:18.613Z,38.7
2022-10-28T18:35:15.602Z,38.7
2022-10-28T18:40:15.838Z,38.7
2022-10-28T18:45:18.637Z,38.8
2022-10-28T18:50:18.573Z,38.7
2022-10-28T18:55:18.616Z,38.7
2022-10-28T19:00:19.569Z,38.2
2022-10-28T19:05:15.628Z,38.5
2022-10-28T19:10:18.897Z,38.5
2022-10-28T19:15:18.629Z,38.4
2022-10-28T19:20:18.641Z,38.4
2022-10-28T19:25:18.647Z,38.4
2022-10-28T19:30:18.639Z,38.4
2022-10-28T19:35:15.661Z,38.0
2022-10-28T19:40:15.666Z,38.4
2022-10-28T19:45:15.830Z,38.3
2022-10-28T19:50:18.735Z,38.3
2022-10-28T19:55:18.620Z,38.5
2022-10-28T20:00:18.636Z,38.5
2022-10-28T20:05:18.635Z,38.5
2022-10-28T20:10:18.633Z,38.5
2022-10-28T20:15:15.646Z,38.5
2022-10-28T20:20:15.831Z,38.5
2022-10-28T20:25:15.633Z,38.5
2022-10-28T20:30:15.676Z,38.5
2022-10-28T20:35:18.861Z,38.0
2022-10-28T20:40:18.678Z,37.2
2022-10-28T20:45:18.632Z,37.1
2022-10-28T20:50:18.929Z,37.0
2022-10-28T20:55:18.660Z,36.5
2022-10-28T21:00:18.644Z,36.8
2022-10-28T21:05:18.636Z,36.8
2022-10-28T21:10:18.637Z,36.7
2022-10-28T21:15:15.690Z,35.7
2022-10-28T21:20:18.631Z,35.1
2022-10-28T21:25:15.890Z,35.5
2022-10-28T21:30:18.691Z,35.7
2022-10-28T21:35:18.653Z,35.6
2022-10-28T21:40:18.696Z,36.0
2022-10-28T21:45:18.700Z,35.8
2022-10-28T21:50:15.700Z,35.7
2022-10-28T21:55:26.964Z,35.5
2022-10-28T22:00:18.706Z,35.8
2022-10-28T22:05:18.691Z,35.7
2022-10-28T22:10:15.726Z,36.0
2022-10-28T22:15:15.686Z,36.2
2022-10-28T22:20:15.843Z,36.6
2022-10-28T22:25:15.699Z,36.4
2022-10-28T22:30:19.059Z,36.3
2022-10-28T22:35:18.715Z,36.6
2022-10-28T22:40:18.685Z,36.5
2022-10-28T22:45:18.716Z,36.9
2022-10-28T22:50:15.739Z,36.8
2022-10-28T22:55:15.695Z,37.1
2022-10-28T23:00:15.818Z,37.1
2022-10-28T23:05:19.033Z,37.1
2022-10-28T23:10:18.706Z,37.4
2022-10-28T23:15:18.691Z,37.4
2022-10-28T23:20:18.728Z,37.8
2022-10-28T23:25:15.710Z,37.8
2022-10-28T23:30:15.726Z,37.8
2022-10-28T23:35:18.730Z,37.8
2022-10-28T23:40:19.018Z,38.1
2022-10-28T23:45:15.661Z,38.1
2022-10-28T23:50:18.710Z,38.1
2022-10-28T23:55:15.774Z,38.1
